createdAt,value
2018-07-26T00:00:23.671Z,56.14
2018-07-26T00:02:54.063Z,56.49
2018-07-26T00:05:24.465Z,56.79
2018-07-26T00:07:54.851Z,56.99
2018-07-26T00:10:25.629Z,57.81
2018-07-26T00:12:56.593Z,57.98
2018-07-26T00:15:27.409Z,58.22
2018-07-26T00:17:57.839Z,57.71
2018-07-26T00:20:28.250Z,57.94
2018-07-26T00:22:58.606Z,57.80
2018-07-26T00:25:29.006Z,58.57
2018-07-26T00:27:59.395Z,58.63
2018-07-26T00:30:29.729Z,59.55
2018-07-26T00:33:00.178Z,59.19
2018-07-26T00:35:31.210Z,59.10
2018-07-26T00:38:01.632Z,59.32
2018-07-26T00:40:31.946Z,59.28
2018-07-26T00:43:02.578Z,59.51
2018-07-26T00:45:32.993Z,59.27
2018-07-26T00:48:03.678Z,58.53
2018-07-26T00:50:34.054Z,59.06
2018-07-26T00:53:04.494Z,59.14
2018-07-26T00:55:34.844Z,59.29
2018-07-26T00:58:05.236Z,59.65
2018-07-26T01:00:35.645Z,58.48
2018-07-26T01:03:06.014Z,57.88
2018-07-26T01:05:36.410Z,58.86
2018-07-26T01:08:07.272Z,59.63
2018-07-26T01:10:37.710Z,59.43
2018-07-26T01:13:08.081Z,59.77
2018-07-26T01:15:38.493Z,59.82
2018-07-26T01:18:08.857Z,59.55
2018-07-26T01:20:39.234Z,59.94
2018-07-26T01:23:09.790Z,60.19
2018-07-26T01:25:40.138Z,60.39
2018-07-26T01:28:10.527Z,59.87
2018-07-26T01:30:40.938Z,59.94
2018-07-26T01:33:11.277Z,60.74
2018-07-26T01:35:41.673Z,60.74
2018-07-26T01:38:12.636Z,61.13
2018-07-26T01:40:42.995Z,61.35
2018-07-26T01:43:48.675Z,60.54
2018-07-26T01:46:20.518Z,61.58
2018-07-26T01:48:51.247Z,61.73
2018-07-26T01:51:21.635Z,62.02
2018-07-26T01:53:51.960Z,62.03
2018-07-26T01:56:22.367Z,62.00
2018-07-26T01:58:52.720Z,61.14
2018-07-26T02:01:23.146Z,61.03
2018-07-26T02:03:53.894Z,61.64
2018-07-26T02:06:23.936Z,61.99
2018-07-26T02:08:54.564Z,61.66
2018-07-26T02:11:25.385Z,60.93
2018-07-26T02:13:55.718Z,61.16
2018-07-26T02:16:26.124Z,60.85
2018-07-26T02:18:56.548Z,61.02
2018-07-26T02:21:26.928Z,61.42
2018-07-26T02:23:57.258Z,62.21
2018-07-26T02:26:27.642Z,62.49
2018-07-26T02:28:58.048Z,62.24
2018-07-26T02:31:28.418Z,62.77
2018-07-26T02:33:58.993Z,62.82
2018-07-26T02:36:29.578Z,62.50
2018-07-26T02:39:00.322Z,62.29
2018-07-26T02:41:30.755Z,62.77
2018-07-26T02:44:01.352Z,63.22
2018-07-26T02:46:32.146Z,62.99
2018-07-26T02:49:02.534Z,62.70
2018-07-26T02:51:32.968Z,62.12
2018-07-26T02:54:03.724Z,62.56
2018-07-26T02:56:34.095Z,62.84
2018-07-26T02:59:04.400Z,63.24
2018-07-26T03:01:34.802Z,63.68
2018-07-26T03:04:05.326Z,63.33
2018-07-26T03:06:35.748Z,63.81
2018-07-26T03:09:09.006Z,63.61
2018-07-26T03:11:39.352Z,62.94
2018-07-26T03:14:09.690Z,63.21
2018-07-26T03:16:40.070Z,63.96
2018-07-26T03:19:10.390Z,64.11
2018-07-26T03:21:40.726Z,63.76
2018-07-26T03:24:10.720Z,64.31
2018-07-26T03:26:41.472Z,63.94
2018-07-26T03:29:11.496Z,64.21
2018-07-26T03:31:41.595Z,63.75
2018-07-26T03:34:12.187Z,64.57
2018-07-26T03:36:42.582Z,64.37
2018-07-26T03:39:13.000Z,64.75
2018-07-26T03:41:43.756Z,64.44
2018-07-26T03:44:14.662Z,64.37
2018-07-26T03:46:45.584Z,64.90
2018-07-26T03:49:15.988Z,64.90
2018-07-26T03:51:46.350Z,65.34
2018-07-26T03:54:16.712Z,64.95
2018-07-26T03:56:47.242Z,65.39
2018-07-26T03:59:17.584Z,65.40
2018-07-26T04:01:47.956Z,65.42
2018-07-26T04:04:18.654Z,65.27
2018-07-26T04:06:49.108Z,64.78
2018-07-26T04:09:19.824Z,65.61
2018-07-26T04:11:50.229Z,65.51
2018-07-26T04:14:20.641Z,65.40
2018-07-26T04:16:51.083Z,65.15
2018-07-26T04:19:21.471Z,65.20
2018-07-26T04:21:51.915Z,64.86
2018-07-26T04:24:23.219Z,64.24
2018-07-26T04:26:53.663Z,63.75
2018-07-26T04:29:24.365Z,64.17
2018-07-26T04:31:55.448Z,64.03
2018-07-26T04:34:26.279Z,64.14
2018-07-26T04:36:56.633Z,63.32
2018-07-26T04:41:56.175Z,62.60
2018-07-26T04:44:26.456Z,62.19
2018-07-26T04:46:56.731Z,60.49
2018-07-26T04:49:27.021Z,56.25
2018-07-26T04:51:57.374Z,51.70
2018-07-26T04:54:27.778Z,47.48
2018-07-26T04:56:58.076Z,45.07
2018-07-26T04:59:28.578Z,41.94
2018-07-26T05:01:58.896Z,40.04
2018-07-26T05:04:28.898Z,38.59
2018-07-26T05:06:58.958Z,39.64
2018-07-26T05:09:29.942Z,39.87
2018-07-26T05:12:00.278Z,43.42
2018-07-26T05:14:30.631Z,47.38
2018-07-26T05:17:00.948Z,50.50
2018-07-26T05:19:31.298Z,52.56
2018-07-26T05:22:01.724Z,53.45
2018-07-26T05:24:32.370Z,51.01
2018-07-26T05:27:02.720Z,49.25
2018-07-26T05:29:33.095Z,48.17
2018-07-26T05:32:03.583Z,48.81
2018-07-26T05:34:33.933Z,50.51
2018-07-26T05:37:04.551Z,50.33
2018-07-26T05:39:34.886Z,51.01
2018-07-26T05:42:05.674Z,48.37
2018-07-26T05:44:36.287Z,49.98
2018-07-26T05:47:07.362Z,49.30
2018-07-26T05:49:37.777Z,49.06
2018-07-26T05:52:08.336Z,48.57
2018-07-26T05:54:39.013Z,49.80
2018-07-26T05:57:09.736Z,49.13
2018-07-26T05:59:40.215Z,48.72
2018-07-26T06:02:11.224Z,48.25
2018-07-26T06:04:41.682Z,47.94
2018-07-26T06:10:48.650Z,48.49
2018-07-26T06:13:19.052Z,50.97
2018-07-26T06:15:49.377Z,53.04
2018-07-26T06:18:19.690Z,54.32
2018-07-26T06:20:49.990Z,53.82
2018-07-26T06:23:20.480Z,53.71
2018-07-26T06:25:51.265Z,54.86
2018-07-26T06:28:21.627Z,54.14
2018-07-26T06:30:52.118Z,55.30
2018-07-26T06:33:22.839Z,54.37
2018-07-26T06:35:53.617Z,53.04
2018-07-26T06:38:23.960Z,53.54
2018-07-26T06:40:54.228Z,53.56
2018-07-26T06:43:24.947Z,53.44
2018-07-26T06:45:55.564Z,53.13
2018-07-26T06:48:25.969Z,52.83
2018-07-26T06:50:56.404Z,51.54
2018-07-26T06:53:27.102Z,52.23
2018-07-26T06:55:57.505Z,52.57
2018-07-26T06:58:28.316Z,52.40
2018-07-26T07:00:59.014Z,53.74
2018-07-26T07:03:29.436Z,54.05
2018-07-26T07:05:59.932Z,54.13
2018-07-26T07:08:30.790Z,53.91
2018-07-26T07:11:01.264Z,54.31
2018-07-26T07:13:32.347Z,54.63
2018-07-26T07:16:02.721Z,53.39
2018-07-26T07:18:33.196Z,53.60
2018-07-26T07:21:03.632Z,53.52
2018-07-26T07:23:34.411Z,53.11
2018-07-26T07:26:05.116Z,52.06
2018-07-26T07:28:36.250Z,51.86
2018-07-26T07:31:06.718Z,52.05
2018-07-26T07:33:37.431Z,49.63
2018-07-26T07:36:07.834Z,50.02
2018-07-26T07:38:38.244Z,50.73
2018-07-26T07:41:08.928Z,50.91
2018-07-26T07:43:39.694Z,51.41
2018-07-26T07:46:10.627Z,50.95
2018-07-26T07:48:40.983Z,50.67
2018-07-26T07:51:11.364Z,48.51
2018-07-26T07:53:41.983Z,50.07
2018-07-26T07:56:13.010Z,49.33
2018-07-26T07:58:43.554Z,47.91
2018-07-26T08:01:13.968Z,47.84
2018-07-26T08:03:44.385Z,48.10
2018-07-26T08:06:14.806Z,47.49
2018-07-26T08:08:45.862Z,47.50
2018-07-26T08:11:16.647Z,46.93
2018-07-26T08:13:47.208Z,47.59
2018-07-26T08:16:17.608Z,47.40
2018-07-26T08:18:48.066Z,47.47
2018-07-26T08:21:18.491Z,45.23
2018-07-26T08:23:49.438Z,45.36
2018-07-26T08:26:19.846Z,44.94
2018-07-26T08:28:50.192Z,44.81
2018-07-26T08:31:20.668Z,45.42
2018-07-26T08:33:51.040Z,45.55
2018-07-26T08:36:21.451Z,43.54
2018-07-26T08:38:52.124Z,43.95
2018-07-26T08:41:22.926Z,43.87
2018-07-26T08:43:53.414Z,43.19
2018-07-26T08:46:23.870Z,43.81
2018-07-26T08:48:54.403Z,43.18
2018-07-26T08:51:24.786Z,43.57
2018-07-26T08:53:56.196Z,43.20
2018-07-26T08:56:27.356Z,42.26
2018-07-26T08:58:57.738Z,42.28
2018-07-26T09:01:28.758Z,41.44
2018-07-26T09:03:59.090Z,42.29
2018-07-26T09:06:29.620Z,42.10
2018-07-26T09:09:00.614Z,42.46
2018-07-26T09:11:31.598Z,41.31
2018-07-26T09:14:02.219Z,39.43
2018-07-26T09:16:32.609Z,39.63
2018-07-26T09:19:03.019Z,38.82
2018-07-26T09:21:33.426Z,38.31
2018-07-26T09:24:03.531Z,37.05
2018-07-26T09:26:34.186Z,37.00
2018-07-26T09:29:04.678Z,37.06
2018-07-26T09:31:35.395Z,37.69
2018-07-26T09:34:05.899Z,36.95
2018-07-26T09:36:36.349Z,37.30
2018-07-26T09:39:13.372Z,35.70
2018-07-26T09:41:43.558Z,35.51
2018-07-26T09:44:13.574Z,37.96
2018-07-26T09:46:43.883Z,35.08
2018-07-26T09:49:13.998Z,35.25
2018-07-26T09:51:44.501Z,35.72
2018-07-26T09:54:14.573Z,35.15
2018-07-26T09:56:44.679Z,35.71
2018-07-26T09:59:14.737Z,35.28
2018-07-26T10:01:44.787Z,35.08
2018-07-26T10:04:14.857Z,34.82
2018-07-26T10:06:44.930Z,34.76
2018-07-26T10:09:15.048Z,33.54
2018-07-26T10:11:45.200Z,33.41
2018-07-26T10:14:15.639Z,33.12
2018-07-26T10:16:45.800Z,33.81
2018-07-26T10:19:15.983Z,33.03
2018-07-26T10:21:46.104Z,32.54
2018-07-26T10:24:16.245Z,31.31
2018-07-26T10:26:46.453Z,31.75
2018-07-26T10:29:16.523Z,31.02
2018-07-26T10:31:46.551Z,30.46
2018-07-26T10:34:16.631Z,29.44
2018-07-26T10:36:46.725Z,29.76
2018-07-26T10:39:16.791Z,30.03
2018-07-26T10:41:47.239Z,30.49
2018-07-26T10:44:17.269Z,29.65
2018-07-26T10:46:47.391Z,28.91
2018-07-26T10:49:17.516Z,29.72
2018-07-26T10:51:47.663Z,30.26
2018-07-26T10:54:17.803Z,29.38
2018-07-26T10:56:48.017Z,30.25
2018-07-26T10:59:18.898Z,30.82
2018-07-26T11:01:49.579Z,30.50
2018-07-26T11:04:19.761Z,31.26
2018-07-26T11:06:49.949Z,30.77
2018-07-26T11:09:20.019Z,30.38
2018-07-26T11:11:50.189Z,29.55
2018-07-26T11:14:20.676Z,30.52
2018-07-26T11:16:50.784Z,30.70
2018-07-26T11:19:20.890Z,30.29
2018-07-26T11:21:51.437Z,29.74
2018-07-26T11:24:21.522Z,29.39
2018-07-26T11:26:51.997Z,29.36
2018-07-26T11:29:22.175Z,29.26
2018-07-26T11:31:52.371Z,29.34
2018-07-26T11:34:23.102Z,27.66
2018-07-26T11:36:53.331Z,27.96
2018-07-26T11:42:59.543Z,28.20
2018-07-26T11:45:29.724Z,27.41
2018-07-26T11:48:00.398Z,27.38
2018-07-26T11:50:30.524Z,27.00
2018-07-26T11:53:00.764Z,26.41
2018-07-26T11:55:30.982Z,27.07
2018-07-26T11:58:01.154Z,28.19
2018-07-26T12:00:31.960Z,27.23
2018-07-26T12:03:02.162Z,26.53
2018-07-26T12:05:32.685Z,26.33
2018-07-26T12:08:02.841Z,25.25
2018-07-26T12:10:32.939Z,25.08
2018-07-26T12:13:03.213Z,24.45
2018-07-26T12:15:33.430Z,24.35
2018-07-26T12:18:03.628Z,25.91
2018-07-26T12:20:33.823Z,27.02
2018-07-26T12:23:04.131Z,27.58
2018-07-26T12:25:34.427Z,27.43
2018-07-26T12:28:04.643Z,27.15
2018-07-26T12:30:34.784Z,27.33
2018-07-26T12:33:06.001Z,26.81
2018-07-26T12:35:36.159Z,27.32
2018-07-26T12:38:06.385Z,26.69
2018-07-26T12:40:36.615Z,27.15
2018-07-26T12:43:06.757Z,27.49
2018-07-26T12:45:37.235Z,27.87
2018-07-26T12:48:07.337Z,26.41
2018-07-26T12:50:37.553Z,25.68
2018-07-26T12:53:07.995Z,24.17
2018-07-26T12:55:38.283Z,25.25
2018-07-26T12:58:08.634Z,25.23
2018-07-26T13:00:38.693Z,25.61
2018-07-26T13:03:08.812Z,25.44
2018-07-26T13:05:38.939Z,25.62
2018-07-26T13:08:09.089Z,26.97
2018-07-26T13:10:39.191Z,25.54
2018-07-26T13:13:09.302Z,26.54
2018-07-26T13:15:39.413Z,26.07
2018-07-26T13:18:09.461Z,25.74
2018-07-26T13:20:39.643Z,25.32
2018-07-26T13:23:10.641Z,25.38
2018-07-26T13:25:40.781Z,26.31
2018-07-26T13:28:11.208Z,25.53
2018-07-26T13:30:42.315Z,26.22
2018-07-26T13:33:12.427Z,26.10
2018-07-26T13:35:42.561Z,25.66
2018-07-26T13:38:13.125Z,25.79
2018-07-26T13:40:43.229Z,26.47
2018-07-26T13:43:13.585Z,27.12
2018-07-26T13:45:43.679Z,26.66
2018-07-26T13:48:13.791Z,26.02
2018-07-26T13:50:44.033Z,25.92
2018-07-26T13:53:14.175Z,26.04
2018-07-26T13:55:44.291Z,25.30
2018-07-26T13:58:15.109Z,25.94
2018-07-26T14:00:45.298Z,26.16
2018-07-26T14:03:15.380Z,25.62
2018-07-26T14:05:45.477Z,26.29
2018-07-26T14:08:15.549Z,24.92
2018-07-26T14:10:45.986Z,25.07
2018-07-26T14:13:16.111Z,25.33
2018-07-26T14:15:46.265Z,24.57
2018-07-26T14:18:16.463Z,23.67
2018-07-26T14:20:46.640Z,24.15
2018-07-26T14:23:23.485Z,23.93
2018-07-26T14:25:53.576Z,24.76
2018-07-26T14:28:23.653Z,24.78
2018-07-26T14:30:53.806Z,24.55
2018-07-26T14:33:24.262Z,24.09
2018-07-26T14:35:54.476Z,23.75
2018-07-26T14:38:24.661Z,24.44
2018-07-26T14:40:55.322Z,24.64
2018-07-26T14:43:26.004Z,23.17
2018-07-26T14:45:56.168Z,22.90
2018-07-26T14:48:26.290Z,24.35
2018-07-26T14:50:56.410Z,25.78
2018-07-26T14:53:26.582Z,24.61
2018-07-26T14:55:56.686Z,25.00
2018-07-26T14:58:27.544Z,24.78
2018-07-26T15:00:57.685Z,24.38
2018-07-26T15:03:27.921Z,24.14
2018-07-26T15:05:58.170Z,23.96
2018-07-26T15:08:28.272Z,22.52
2018-07-26T15:10:58.330Z,23.06
2018-07-26T15:13:28.468Z,23.28
2018-07-26T15:15:58.544Z,24.24
2018-07-26T15:18:28.638Z,25.16
2018-07-26T15:20:58.804Z,24.05
2018-07-26T15:23:29.292Z,24.43
2018-07-26T15:25:59.358Z,23.84
2018-07-26T15:28:29.452Z,23.95
2018-07-26T15:30:59.575Z,24.11
2018-07-26T15:33:29.682Z,23.95
2018-07-26T15:35:59.763Z,25.22
2018-07-26T15:38:30.159Z,24.89
2018-07-26T15:41:00.250Z,24.98
2018-07-26T15:43:30.644Z,23.94
2018-07-26T15:46:00.718Z,23.39
2018-07-26T15:48:30.852Z,24.66
2018-07-26T15:51:00.946Z,24.92
2018-07-26T15:53:31.099Z,24.94
2018-07-26T15:56:01.228Z,24.74
2018-07-26T15:58:31.330Z,24.49
2018-07-26T16:01:01.462Z,24.26
2018-07-26T16:03:31.649Z,23.78
2018-07-26T16:06:01.899Z,24.07
2018-07-26T16:08:32.327Z,24.92
2018-07-26T16:11:02.518Z,25.23
2018-07-26T16:13:33.004Z,25.30
2018-07-26T16:16:03.858Z,24.79
2018-07-26T16:18:33.948Z,24.96
2018-07-26T16:21:04.397Z,24.50
2018-07-26T16:23:34.490Z,24.74
2018-07-26T16:26:05.068Z,25.03
2018-07-26T16:28:35.258Z,24.36
2018-07-26T16:31:05.600Z,24.75
2018-07-26T16:33:35.698Z,24.59
2018-07-26T16:36:06.158Z,23.85
2018-07-26T16:38:36.501Z,24.63
2018-07-26T16:41:06.992Z,24.91
2018-07-26T16:43:37.388Z,24.70
2018-07-26T16:46:07.599Z,25.32
2018-07-26T16:48:37.676Z,24.81
2018-07-26T16:51:08.168Z,25.29
2018-07-26T16:53:38.322Z,25.88
2018-07-26T16:56:08.974Z,25.98
2018-07-26T16:58:39.448Z,26.35
2018-07-26T17:01:09.699Z,26.29
2018-07-26T17:03:39.870Z,26.46
2018-07-26T17:06:09.890Z,26.14
2018-07-26T17:08:39.899Z,26.50
2018-07-26T17:11:10.254Z,27.42
2018-07-26T17:13:40.359Z,27.18
2018-07-26T17:16:11.012Z,26.69
2018-07-26T17:18:41.071Z,26.73
2018-07-26T17:21:12.234Z,27.35
2018-07-26T17:23:42.371Z,26.60
2018-07-26T17:26:12.978Z,26.48
2018-07-26T17:28:43.228Z,27.42
2018-07-26T17:31:14.287Z,27.20
2018-07-26T17:33:44.402Z,27.17
2018-07-26T17:36:14.501Z,27.10
2018-07-26T17:38:44.582Z,27.62
2018-07-26T17:41:15.105Z,27.52
2018-07-26T17:43:45.337Z,28.32
2018-07-26T17:46:15.847Z,28.59
2018-07-26T17:48:46.011Z,28.18
2018-07-26T17:51:19.407Z,28.28
2018-07-26T17:53:49.566Z,28.69
2018-07-26T17:56:19.733Z,28.50
2018-07-26T17:58:50.301Z,29.09
2018-07-26T18:01:20.413Z,28.64
2018-07-26T18:03:50.616Z,28.65
2018-07-26T18:06:20.738Z,28.91
2018-07-26T18:08:50.766Z,29.37
2018-07-26T18:11:20.912Z,29.18
2018-07-26T18:13:51.129Z,29.08
2018-07-26T18:16:21.352Z,29.13
2018-07-26T18:18:52.766Z,29.54
2018-07-26T18:21:24.318Z,29.63
2018-07-26T18:23:54.500Z,29.33
2018-07-26T18:26:24.973Z,29.83
2018-07-26T18:28:55.079Z,30.19
2018-07-26T18:31:28.650Z,30.21
2018-07-26T18:33:59.013Z,30.56
2018-07-26T18:36:29.460Z,30.49
2018-07-26T18:38:59.837Z,30.79
2018-07-26T18:41:29.885Z,31.38
2018-07-26T18:44:01.348Z,31.56
2018-07-26T18:46:32.053Z,31.62
2018-07-26T18:49:02.390Z,32.02
2018-07-26T18:51:32.813Z,32.25
2018-07-26T18:54:03.259Z,32.18
2018-07-26T18:56:33.620Z,33.24
2018-07-26T18:59:04.459Z,33.45
2018-07-26T19:01:35.321Z,32.88
2018-07-26T19:04:06.167Z,33.68
2018-07-26T19:06:36.625Z,33.66
2018-07-26T19:09:11.689Z,34.00
2018-07-26T19:11:43.128Z,34.55
2018-07-26T19:14:13.605Z,34.03
2018-07-26T19:16:44.059Z,34.92
2018-07-26T19:19:14.484Z,35.13
2018-07-26T19:21:45.282Z,35.52
2018-07-26T19:24:15.653Z,36.39
2018-07-26T19:26:46.135Z,36.58
2018-07-26T19:29:17.335Z,36.27
2018-07-26T19:31:47.967Z,37.25
2018-07-26T19:34:18.351Z,37.81
2018-07-26T19:36:48.911Z,38.61
2018-07-26T19:39:19.597Z,38.66
2018-07-26T19:42:53.357Z,37.84
2018-07-26T19:45:23.759Z,37.87
2018-07-26T19:47:54.101Z,37.82
2018-07-26T19:50:24.509Z,38.76
2018-07-26T19:52:54.905Z,38.84
2018-07-26T19:55:25.259Z,39.27
2018-07-26T19:57:55.971Z,39.20
2018-07-26T20:00:26.373Z,40.24
2018-07-26T20:02:56.735Z,39.96
2018-07-26T20:05:28.134Z,41.01
2018-07-26T20:07:58.757Z,40.64
2018-07-26T20:10:29.185Z,41.32
2018-07-26T20:12:59.705Z,41.86
2018-07-26T20:15:30.069Z,42.12
2018-07-26T20:18:00.636Z,41.56
2018-07-26T20:20:31.011Z,42.29
2018-07-26T20:23:01.367Z,42.37
2018-07-26T20:25:31.870Z,41.50
2018-07-26T20:28:02.191Z,43.34
2018-07-26T20:30:32.759Z,43.60
2018-07-26T20:33:03.844Z,44.41
2018-07-26T20:35:34.351Z,42.98
2018-07-26T20:38:04.813Z,43.79
2018-07-26T20:40:35.251Z,43.08
2018-07-26T20:43:05.999Z,43.51
2018-07-26T20:45:36.453Z,43.21
2018-07-26T20:48:07.179Z,42.70
2018-07-26T20:50:37.847Z,43.65
2018-07-26T20:53:09.271Z,42.87
2018-07-26T20:55:39.880Z,43.74
2018-07-26T20:58:10.316Z,43.91
2018-07-26T21:00:40.691Z,44.43
2018-07-26T21:03:11.075Z,44.41
2018-07-26T21:05:41.848Z,44.21
2018-07-26T21:08:12.420Z,44.95
2018-07-26T21:10:42.823Z,44.75
2018-07-26T21:13:13.597Z,44.53
2018-07-26T21:15:44.253Z,44.48
2018-07-26T21:18:15.175Z,44.69
2018-07-26T21:20:47.116Z,45.25
2018-07-26T21:23:20.522Z,44.97
2018-07-26T21:25:51.193Z,45.65
2018-07-26T21:28:23.115Z,45.65
2018-07-26T21:30:53.931Z,45.32
2018-07-26T21:33:24.650Z,45.33
2018-07-26T21:35:56.280Z,45.75
2018-07-26T21:38:28.240Z,45.61
2018-07-26T21:40:58.722Z,46.87
2018-07-26T21:43:29.247Z,47.15
2018-07-26T21:46:01.654Z,47.39
2018-07-26T21:48:32.102Z,47.58
2018-07-26T21:51:03.394Z,48.24
2018-07-26T21:53:34.702Z,48.27
2018-07-26T21:56:07.772Z,47.78
2018-07-26T21:58:39.142Z,47.32
2018-07-26T22:01:09.712Z,47.13
2018-07-26T22:03:40.206Z,47.31
2018-07-26T22:06:11.236Z,47.24
2018-07-26T22:08:41.725Z,47.03
2018-07-26T22:11:12.388Z,47.55
2018-07-26T22:13:42.898Z,46.78
2018-07-26T22:16:14.039Z,46.71
2018-07-26T22:18:45.174Z,46.29
2018-07-26T22:21:16.090Z,46.44
2018-07-26T22:23:46.620Z,46.36
2018-07-26T22:26:17.790Z,46.31
2018-07-26T22:28:48.138Z,46.70
2018-07-26T22:31:18.534Z,47.85
2018-07-26T22:33:49.091Z,48.20
2018-07-26T22:36:19.649Z,47.68
2018-07-26T22:38:51.325Z,48.02
2018-07-26T22:41:21.726Z,49.30
2018-07-26T22:43:52.404Z,49.04
2018-07-26T22:46:23.101Z,49.61
2018-07-26T22:48:53.489Z,50.08
2018-07-26T22:51:24.205Z,50.35
2018-07-26T22:53:54.702Z,49.36
2018-07-26T22:56:25.284Z,49.74
2018-07-26T22:58:55.728Z,49.78
2018-07-26T23:01:27.234Z,49.53
2018-07-26T23:03:58.497Z,49.26
2018-07-26T23:06:29.345Z,49.00
2018-07-26T23:09:00.066Z,49.82
2018-07-26T23:11:30.744Z,50.59
2018-07-26T23:14:01.128Z,50.37
2018-07-26T23:16:33.306Z,50.16
2018-07-26T23:19:03.959Z,50.90
2018-07-26T23:21:34.526Z,51.67
2018-07-26T23:24:04.982Z,52.49
2018-07-26T23:26:35.630Z,51.53
2018-07-26T23:29:06.122Z,51.78
2018-07-26T23:31:36.675Z,51.29
2018-07-26T23:34:07.170Z,51.68
2018-07-26T23:36:37.607Z,52.12
2018-07-26T23:39:10.688Z,52.43
2018-07-26T23:41:41.142Z,52.42
2018-07-26T23:44:11.520Z,51.87
2018-07-26T23:46:42.345Z,52.04
2018-07-26T23:49:13.122Z,52.07
2018-07-26T23:51:43.522Z,52.31
2018-07-26T23:54:13.973Z,52.98
